Time;durP1;ratioP1;P1;durP2;ratioP2;P2;SDS_P1;SDS_P2;PMS_P1;PMS_P2;Temp;Humidity;BMP_temperature;BMP_pressure;BME280_temperature;BME280_humidity;BME280_pressure;Samples;Min_cycle;Max_cycle;Signal;HPM_P1;HPM_P2
2022/10/28 00:01:53;;;;;;;17.55;6.78;;;;;;;;;;4969926;28;20582;-62
2022/10/28 00:04:19;;;;;;;20.23;7.80;;;;;;;;;;4969057;28;20206;-62
2022/10/28 00:06:44;;;;;;;18.80;7.82;;;;;;;;;;4969242;28;20385;-62
2022/10/28 00:09:09;;;;;;;19.80;7.25;;;;;;;;;;4972571;28;20213;-62
2022/10/28 00:11:34;;;;;;;17.95;7.57;;;;;;;;;;4977171;28;20233;-62
2022/10/28 00:14:00;;;;;;;19.30;8.23;;;;;;;;;;4980568;28;20220;-62
2022/10/28 00:16:27;;;;;;;17.55;8.30;;;;;;;;;;4979051;28;20248;-62
2022/10/28 00:18:52;;;;;;;20.52;7.97;;;;;;;;;;4980425;28;20231;-62
2022/10/28 00:21:20;;;;;;;15.60;7.93;;;;;;;;;;4979458;28;20209;-62
2022/10/28 00:23:45;;;;;;;20.25;8.07;;;;;;;;;;4991751;28;20205;-62
2022/10/28 00:26:12;;;;;;;17.02;8.10;;;;;;;;;;4971235;28;20615;-62
2022/10/28 00:28:41;;;;;;;14.60;7.32;;;;;;;;;;4972216;28;20384;-62
2022/10/28 00:31:07;;;;;;;19.75;8.00;;;;;;;;;;4974567;28;20765;-63
2022/10/28 00:33:32;;;;;;;19.15;7.65;;;;;;;;;;4979966;28;20216;-62
2022/10/28 00:36:12;;;;;;;20.67;8.35;;;;;;;;;;4979271;28;20583;-62
2022/10/28 00:38:37;;;;;;;18.23;8.00;;;;;;;;;;4978890;28;20260;-62
2022/10/28 00:41:03;;;;;;;16.80;8.52;;;;;;;;;;4979877;28;20235;-63
2022/10/28 00:43:34;;;;;;;21.85;8.30;;;;;;;;;;4978972;28;20221;-62
2022/10/28 00:45:59;;;;;;;20.20;8.23;;;;;;;;;;4978790;28;20376;-62
2022/10/28 00:48:24;;;;;;;19.42;8.70;;;;;;;;;;4972179;28;20260;-62
2022/10/28 00:50:51;;;;;;;16.63;8.20;;;;;;;;;;4986875;28;20213;-62
2022/10/28 00:53:18;;;;;;;15.82;7.60;;;;;;;;;;4972320;28;20248;-62
2022/10/28 00:55:43;;;;;;;23.65;8.10;;;;;;;;;;4979222;28;20213;-62
2022/10/28 00:58:08;;;;;;;19.85;8.20;;;;;;;;;;4978116;28;20696;-63
2022/10/28 01:00:34;;;;;;;16.00;8.85;;;;;;;;;;4994297;28;20228;-62
2022/10/28 01:02:59;;;;;;;16.10;7.70;;;;;;;;;;4978906;28;20590;-62
2022/10/28 01:05:25;;;;;;;18.40;8.32;;;;;;;;;;4978044;28;20894;-62
2022/10/28 01:07:51;;;;;;;23.10;9.38;;;;;;;;;;4979051;28;20680;-62
2022/10/28 01:10:16;;;;;;;16.02;7.30;;;;;;;;;;4988076;28;20263;-62
2022/10/28 01:12:49;;;;;;;16.35;7.72;;;;;;;;;;4972007;28;20354;-62
2022/10/28 01:15:15;;;;;;;26.25;8.68;;;;;;;;;;4986348;28;20735;-62
2022/10/28 01:17:45;;;;;;;18.92;8.40;;;;;;;;;;4977606;28;20312;-62
2022/10/28 01:20:17;;;;;;;19.13;9.23;;;;;;;;;;5000803;28;20709;-62
2022/10/28 01:22:49;;;;;;;16.75;7.97;;;;;;;;;;4987825;28;20213;-62
2022/10/28 01:25:14;;;;;;;20.35;8.45;;;;;;;;;;5003317;28;20217;-62
2022/10/28 01:27:45;;;;;;;16.55;7.90;;;;;;;;;;4989317;28;20217;-62
2022/10/28 01:30:15;;;;;;;18.95;8.38;;;;;;;;;;4988851;28;20201;-62
2022/10/28 01:32:44;;;;;;;14.70;8.90;;;;;;;;;;5003360;28;20209;-62
2022/10/28 01:35:11;;;;;;;18.77;8.02;;;;;;;;;;4988177;28;20205;-63
2022/10/28 01:37:38;;;;;;;21.58;9.70;;;;;;;;;;5003492;28;20221;-62
2022/10/28 01:40:05;;;;;;;16.38;8.95;;;;;;;;;;5002628;28;20220;-62
2022/10/28 01:42:35;;;;;;;20.88;9.88;;;;;;;;;;5004146;28;20220;-62
2022/10/28 01:45:01;;;;;;;19.30;8.45;;;;;;;;;;5003303;28;20227;-64
2022/10/28 01:47:28;;;;;;;19.90;8.73;;;;;;;;;;4988082;28;20213;-62
2022/10/28 01:49:54;;;;;;;20.98;9.32;;;;;;;;;;4988793;28;20221;-62
2022/10/28 01:52:20;;;;;;;20.15;9.27;;;;;;;;;;4987733;28;20237;-62
2022/10/28 01:54:49;;;;;;;16.00;7.93;;;;;;;;;;4986736;28;20296;-62
2022/10/28 01:57:14;;;;;;;15.73;9.40;;;;;;;;;;4988336;28;20456;-62
2022/10/28 01:59:39;;;;;;;17.95;9.00;;;;;;;;;;4987053;28;20236;-61
2022/10/28 02:02:05;;;;;;;16.20;8.63;;;;;;;;;;4979191;28;20248;-62
2022/10/28 02:04:30;;;;;;;19.38;8.65;;;;;;;;;;4977343;28;20736;-61
2022/10/28 02:06:56;;;;;;;19.08;8.93;;;;;;;;;;4977213;28;20296;-61
2022/10/28 02:09:39;;;;;;;15.80;8.40;;;;;;;;;;4974760;28;20266;-61
2022/10/28 02:12:15;;;;;;;17.52;8.35;;;;;;;;;;4991858;28;20213;-61
2022/10/28 02:14:51;;;;;;;18.05;8.95;;;;;;;;;;4988382;28;20204;-61
2022/10/28 02:17:16;;;;;;;19.15;9.40;;;;;;;;;;4985232;28;20521;-61
2022/10/28 02:19:43;;;;;;;15.52;8.48;;;;;;;;;;4971036;28;20728;-61
2022/10/28 02:22:20;;;;;;;19.05;8.48;;;;;;;;;;4987999;28;20253;-61
2022/10/28 02:24:46;;;;;;;19.15;9.25;;;;;;;;;;4976334;28;20795;-61
2022/10/28 02:27:12;;;;;;;16.63;8.73;;;;;;;;;;4976614;28;20213;-61
2022/10/28 02:29:40;;;;;;;22.02;8.43;;;;;;;;;;4977162;28;20238;-61
2022/10/28 02:32:07;;;;;;;21.52;9.13;;;;;;;;;;4977621;28;20209;-62
2022/10/28 02:34:34;;;;;;;17.02;8.10;;;;;;;;;;4975509;28;20237;-61
2022/10/28 02:37:00;;;;;;;19.38;9.27;;;;;;;;;;4971757;28;20209;-61
2022/10/28 02:39:28;;;;;;;20.23;9.15;;;;;;;;;;4968586;28;20659;-61
2022/10/28 02:41:54;;;;;;;15.80;9.07;;;;;;;;;;4968844;28;20216;-61
2022/10/28 02:44:21;;;;;;;15.43;9.00;;;;;;;;;;4970954;28;20771;-61
2022/10/28 02:46:46;;;;;;;18.58;9.23;;;;;;;;;;4975547;28;20224;-61
2022/10/28 02:49:11;;;;;;;19.23;8.90;;;;;;;;;;4991070;28;20217;-61
2022/10/28 02:51:38;;;;;;;20.80;10.35;;;;;;;;;;4991185;28;20618;-61
2022/10/28 02:54:03;;;;;;;17.92;9.15;;;;;;;;;;4974972;28;20642;-61
2022/10/28 02:56:30;;;;;;;12.05;8.63;;;;;;;;;;4976215;28;20221;-61
2022/10/28 02:58:55;;;;;;;20.17;8.98;;;;;;;;;;4990554;28;20225;-61
2022/10/28 03:01:20;;;;;;;15.82;8.40;;;;;;;;;;4969943;28;20217;-61
2022/10/28 03:03:45;;;;;;;18.85;8.95;;;;;;;;;;4969384;28;20248;-61
2022/10/28 03:06:11;;;;;;;15.55;9.13;;;;;;;;;;4970097;28;20299;-61
2022/10/28 03:08:36;;;;;;;18.83;9.40;;;;;;;;;;4976870;28;20205;-61
2022/10/28 03:11:01;;;;;;;15.98;9.40;;;;;;;;;;4975373;28;20688;-62
2022/10/28 03:13:26;;;;;;;18.73;9.25;;;;;;;;;;4977535;28;20266;-61
2022/10/28 03:15:52;;;;;;;17.40;9.50;;;;;;;;;;4976222;28;20243;-61
2022/10/28 03:18:17;;;;;;;19.75;10.60;;;;;;;;;;4974802;28;20632;-61
2022/10/28 03:20:42;;;;;;;22.23;9.55;;;;;;;;;;4976127;28;20221;-61
2022/10/28 03:23:07;;;;;;;23.33;10.18;;;;;;;;;;4971583;28;20209;-61
2022/10/28 03:25:33;;;;;;;22.42;9.25;;;;;;;;;;4968741;28;20614;-61
2022/10/28 03:27:58;;;;;;;15.15;9.05;;;;;;;;;;4969880;28;20549;-61
2022/10/28 03:30:23;;;;;;;18.30;9.43;;;;;;;;;;4974299;28;20668;-61
2022/10/28 03:32:48;;;;;;;18.17;9.07;;;;;;;;;;4975521;28;20216;-61
2022/10/28 03:35:14;;;;;;;20.50;9.35;;;;;;;;;;4975982;28;20740;-61
2022/10/28 03:37:42;;;;;;;21.98;9.45;;;;;;;;;;4976478;28;20345;-61
2022/10/28 03:40:08;;;;;;;21.38;10.13;;;;;;;;;;4975442;28;20241;-62
2022/10/28 03:42:33;;;;;;;16.15;8.57;;;;;;;;;;4977050;28;20236;-61
2022/10/28 03:44:59;;;;;;;19.05;9.52;;;;;;;;;;4973390;28;20205;-61
2022/10/28 03:47:24;;;;;;;18.73;8.63;;;;;;;;;;4971667;28;20282;-61
2022/10/28 03:49:49;;;;;;;19.52;8.30;;;;;;;;;;4973261;28;20213;-61
2022/10/28 03:52:14;;;;;;;21.98;8.95;;;;;;;;;;4976064;28;20823;-61
2022/10/28 03:54:40;;;;;;;15.73;8.60;;;;;;;;;;4979508;28;20207;-61
2022/10/28 03:57:05;;;;;;;17.88;8.00;;;;;;;;;;4979132;28;20688;-61
2022/10/28 03:59:30;;;;;;;19.30;8.68;;;;;;;;;;4979670;28;20229;-61
2022/10/28 04:01:56;;;;;;;25.25;9.00;;;;;;;;;;4977926;28;20578;-61
2022/10/28 04:04:21;;;;;;;19.70;8.18;;;;;;;;;;4979004;28;20264;-61
2022/10/28 04:06:46;;;;;;;19.45;8.57;;;;;;;;;;4978348;28;20522;-61
2022/10/28 04:09:12;;;;;;;17.50;7.78;;;;;;;;;;4972296;28;20217;-61
2022/10/28 04:11:37;;;;;;;20.17;8.82;;;;;;;;;;4987942;28;20237;-61
2022/10/28 04:14:02;;;;;;;21.45;8.43;;;;;;;;;;4981770;28;20213;-61
2022/10/28 04:16:27;;;;;;;18.35;7.80;;;;;;;;;;4991986;28;20216;-61
2022/10/28 04:18:53;;;;;;;19.23;8.30;;;;;;;;;;4992583;28;20244;-61
2022/10/28 04:21:18;;;;;;;14.32;7.95;;;;;;;;;;4990032;28;20213;-61
2022/10/28 04:23:43;;;;;;;16.20;7.63;;;;;;;;;;4990444;28;20216;-61
2022/10/28 04:26:08;;;;;;;15.57;8.25;;;;;;;;;;4989863;28;20247;-62
2022/10/28 04:28:34;;;;;;;14.98;8.18;;;;;;;;;;5004918;28;20217;-61
2022/10/28 04:31:01;;;;;;;15.10;7.57;;;;;;;;;;4990141;28;20224;-61
2022/10/28 04:33:26;;;;;;;18.75;8.57;;;;;;;;;;4990596;28;20201;-61
2022/10/28 04:35:52;;;;;;;18.25;8.15;;;;;;;;;;4990104;28;20213;-61
2022/10/28 04:38:17;;;;;;;15.75;7.55;;;;;;;;;;4989353;28;20248;-61
2022/10/28 04:40:42;;;;;;;16.90;7.38;;;;;;;;;;4989898;28;20267;-61
2022/10/28 04:43:09;;;;;;;20.63;7.63;;;;;;;;;;4989259;28;20292;-61
2022/10/28 04:45:34;;;;;;;16.23;7.45;;;;;;;;;;4990008;28;20243;-61
2022/10/28 04:47:59;;;;;;;13.30;6.80;;;;;;;;;;4989924;28;20723;-61
2022/10/28 04:50:25;;;;;;;17.42;6.60;;;;;;;;;;4988587;28;20219;-61
2022/10/28 04:52:50;;;;;;;16.38;7.40;;;;;;;;;;4989943;28;20295;-61
2022/10/28 04:55:15;;;;;;;17.30;7.00;;;;;;;;;;4988681;28;20235;-61
2022/10/28 04:57:41;;;;;;;16.17;7.00;;;;;;;;;;4988327;28;20665;-61
2022/10/28 05:00:06;;;;;;;15.70;6.45;;;;;;;;;;4988923;28;20224;-62
2022/10/28 05:02:32;;;;;;;17.40;7.00;;;;;;;;;;4989785;28;20287;-61
2022/10/28 05:05:02;;;;;;;15.75;6.72;;;;;;;;;;4988680;28;20209;-61
2022/10/28 05:07:27;;;;;;;19.00;6.65;;;;;;;;;;4988942;28;20692;-61
2022/10/28 05:09:52;;;;;;;17.23;7.55;;;;;;;;;;4988927;28;20248;-61
2022/10/28 05:12:18;;;;;;;21.63;7.75;;;;;;;;;;4988627;28;20209;-61
2022/10/28 05:14:43;;;;;;;16.13;6.88;;;;;;;;;;4989005;28;20209;-61
2022/10/28 05:17:09;;;;;;;16.40;6.93;;;;;;;;;;4988080;28;20302;-62
2022/10/28 05:19:34;;;;;;;15.20;7.30;;;;;;;;;;4989101;28;20566;-61
2022/10/28 05:21:59;;;;;;;14.88;6.93;;;;;;;;;;5004057;28;20296;-61
2022/10/28 05:24:25;;;;;;;15.32;7.32;;;;;;;;;;4973210;28;20287;-61
2022/10/28 05:26:50;;;;;;;16.08;6.75;;;;;;;;;;4978776;28;20224;-61
2022/10/28 05:29:17;;;;;;;15.80;6.70;;;;;;;;;;4977472;28;20327;-61
2022/10/28 05:31:42;;;;;;;19.70;6.75;;;;;;;;;;4977612;28;20319;-61
2022/10/28 05:34:07;;;;;;;16.55;6.40;;;;;;;;;;4977595;28;20270;-62
2022/10/28 05:36:33;;;;;;;17.23;7.05;;;;;;;;;;4978556;28;20802;-61
2022/10/28 05:38:58;;;;;;;18.65;7.63;;;;;;;;;;4980246;28;20266;-61
2022/10/28 05:41:23;;;;;;;19.65;8.02;;;;;;;;;;4992725;28;20253;-61
2022/10/28 05:43:49;;;;;;;13.02;6.65;;;;;;;;;;4989959;28;20685;-61
2022/10/28 05:46:15;;;;;;;14.90;7.07;;;;;;;;;;4987845;28;20417;-61
2022/10/28 05:48:40;;;;;;;20.70;7.03;;;;;;;;;;4988853;28;20420;-61
2022/10/28 05:51:05;;;;;;;18.13;7.63;;;;;;;;;;4988253;28;20451;-63
2022/10/28 05:53:31;;;;;;;16.05;6.93;;;;;;;;;;4987304;28;20758;-64
2022/10/28 05:55:56;;;;;;;17.52;6.65;;;;;;;;;;4987801;28;20521;-64
2022/10/28 05:58:22;;;;;;;16.42;6.90;;;;;;;;;;4986988;28;20252;-64
2022/10/28 06:00:47;;;;;;;17.27;6.00;;;;;;;;;;4982415;28;20213;-64
2022/10/28 06:03:13;;;;;;;20.13;7.05;;;;;;;;;;4987755;28;20206;-64
2022/10/28 06:05:40;;;;;;;14.20;5.47;;;;;;;;;;5002690;28;20578;-63
2022/10/28 06:08:05;;;;;;;15.60;6.20;;;;;;;;;;4986816;28;20209;-64
2022/10/28 06:10:30;;;;;;;14.15;6.53;;;;;;;;;;4987853;28;20730;-63
2022/10/28 06:12:56;;;;;;;14.50;6.75;;;;;;;;;;4987499;28;20209;-63
2022/10/28 06:15:21;;;;;;;15.60;6.28;;;;;;;;;;5002091;28;20209;-63
2022/10/28 06:17:48;;;;;;;12.60;6.10;;;;;;;;;;4987784;28;20261;-63
2022/10/28 06:20:13;;;;;;;11.70;5.97;;;;;;;;;;4985358;28;20217;-64
2022/10/28 06:22:45;;;;;;;15.05;6.45;;;;;;;;;;4985532;28;20216;-64
2022/10/28 06:25:10;;;;;;;19.90;8.80;;;;;;;;;;4984253;28;21144;-63
2022/10/28 06:27:36;;;;;;;15.52;7.00;;;;;;;;;;4986822;28;20205;-63
2022/10/28 06:30:01;;;;;;;14.82;6.47;;;;;;;;;;4987047;28;20205;-65
2022/10/28 06:32:26;;;;;;;18.48;7.22;;;;;;;;;;4987268;28;20245;-64
2022/10/28 06:34:51;;;;;;;14.13;6.28;;;;;;;;;;4986617;28;20201;-64
2022/10/28 06:37:17;;;;;;;13.77;5.82;;;;;;;;;;4985425;28;20216;-64
2022/10/28 06:39:44;;;;;;;18.50;6.43;;;;;;;;;;5002082;28;20216;-64
2022/10/28 06:42:09;;;;;;;18.08;6.45;;;;;;;;;;4983711;28;20425;-64
2022/10/28 06:44:35;;;;;;;16.85;6.38;;;;;;;;;;4986914;28;20232;-64
2022/10/28 06:47:00;;;;;;;19.08;6.88;;;;;;;;;;4987294;28;20255;-64
2022/10/28 06:49:26;;;;;;;17.73;6.47;;;;;;;;;;4986286;28;20197;-64
2022/10/28 06:51:52;;;;;;;14.45;6.43;;;;;;;;;;4986746;28;20209;-62
2022/10/28 06:54:17;;;;;;;12.07;5.57;;;;;;;;;;4986662;28;20213;-61
2022/10/28 06:56:44;;;;;;;15.82;5.57;;;;;;;;;;4984988;28;20621;-61
2022/10/28 06:59:09;;;;;;;23.48;6.32;;;;;;;;;;4981893;28;20772;-61
2022/10/28 07:01:35;;;;;;;12.88;5.88;;;;;;;;;;4986064;28;20279;-61
2022/10/28 07:04:00;;;;;;;12.35;5.85;;;;;;;;;;4985595;28;20205;-61
2022/10/28 07:06:27;;;;;;;16.40;6.70;;;;;;;;;;4985400;28;20220;-61
2022/10/28 07:08:52;;;;;;;15.63;6.55;;;;;;;;;;4987328;28;20213;-61
2022/10/28 07:11:17;;;;;;;21.05;7.28;;;;;;;;;;4985870;28;20699;-61
2022/10/28 07:13:43;;;;;;;10.68;5.97;;;;;;;;;;4983859;28;20208;-61
2022/10/28 07:16:08;;;;;;;14.50;5.90;;;;;;;;;;4985976;28;20224;-62
2022/10/28 07:18:33;;;;;;;20.20;7.22;;;;;;;;;;4984498;28;20224;-61
2022/10/28 07:20:59;;;;;;;16.00;6.35;;;;;;;;;;4987013;28;20727;-61
2022/10/28 07:23:24;;;;;;;11.82;6.05;;;;;;;;;;4986650;28;20304;-61
2022/10/28 07:25:50;;;;;;;14.15;5.90;;;;;;;;;;4986122;28;20221;-61
2022/10/28 07:28:15;;;;;;;15.98;6.30;;;;;;;;;;4986899;28;20301;-61
2022/10/28 07:30:41;;;;;;;20.13;6.10;;;;;;;;;;4986719;28;20294;-61
2022/10/28 07:33:06;;;;;;;12.15;6.07;;;;;;;;;;4986172;28;20220;-62
2022/10/28 07:35:32;;;;;;;15.85;6.28;;;;;;;;;;4986468;28;20304;-61
2022/10/28 07:37:57;;;;;;;16.40;5.90;;;;;;;;;;4985918;28;20239;-61
2022/10/28 07:40:23;;;;;;;18.48;6.22;;;;;;;;;;4986031;28;20233;-61
2022/10/28 07:42:48;;;;;;;15.98;5.57;;;;;;;;;;5001275;28;20620;-61
2022/10/28 07:45:13;;;;;;;11.57;4.78;;;;;;;;;;4985397;28;20205;-61
2022/10/28 07:47:40;;;;;;;13.43;5.97;;;;;;;;;;4986845;28;20209;-61
2022/10/28 07:50:05;;;;;;;16.13;5.65;;;;;;;;;;4984293;28;20717;-61
2022/10/28 07:52:31;;;;;;;18.52;6.28;;;;;;;;;;4985665;28;20217;-61
2022/10/28 07:54:56;;;;;;;15.50;5.57;;;;;;;;;;4984822;28;20451;-61
2022/10/28 07:57:21;;;;;;;13.32;6.10;;;;;;;;;;4986179;28;20225;-61
2022/10/28 07:59:47;;;;;;;11.52;5.72;;;;;;;;;;4985882;28;20252;-61
2022/10/28 08:02:14;;;;;;;16.27;5.70;;;;;;;;;;4986484;28;20247;-61
2022/10/28 08:04:39;;;;;;;15.85;5.70;;;;;;;;;;5002024;28;20210;-61
2022/10/28 08:07:05;;;;;;;17.05;5.93;;;;;;;;;;4985478;28;20208;-61
2022/10/28 08:09:30;;;;;;;12.15;5.97;;;;;;;;;;4986254;28;20660;-61
2022/10/28 08:11:56;;;;;;;16.23;6.22;;;;;;;;;;4986459;28;20224;-62
2022/10/28 08:14:21;;;;;;;14.93;5.18;;;;;;;;;;4985086;28;20688;-61
2022/10/28 08:16:47;;;;;;;18.95;6.78;;;;;;;;;;4986602;28;20205;-61
2022/10/28 08:19:12;;;;;;;12.98;5.47;;;;;;;;;;4984842;28;20622;-61
2022/10/28 08:21:37;;;;;;;19.15;6.38;;;;;;;;;;4985849;28;20657;-61
2022/10/28 08:24:04;;;;;;;15.30;6.22;;;;;;;;;;4986222;28;20220;-62
2022/10/28 08:26:29;;;;;;;16.20;6.40;;;;;;;;;;4986819;28;20316;-61
2022/10/28 08:28:55;;;;;;;17.08;6.85;;;;;;;;;;4985486;28;20304;-61
2022/10/28 08:31:20;;;;;;;15.07;5.80;;;;;;;;;;4985188;28;20209;-61
2022/10/28 08:33:45;;;;;;;13.45;5.60;;;;;;;;;;4987173;28;20213;-61
2022/10/28 08:36:11;;;;;;;16.88;5.78;;;;;;;;;;4989040;28;20623;-62
2022/10/28 08:38:36;;;;;;;14.93;6.70;;;;;;;;;;4989954;28;20571;-61
2022/10/28 08:41:02;;;;;;;17.58;6.22;;;;;;;;;;5004304;28;20754;-61
2022/10/28 08:43:28;;;;;;;14.48;5.70;;;;;;;;;;4989982;28;20209;-61
2022/10/28 08:46:20;;;;;;;14.10;5.65;;;;;;;;;;4989810;28;20734;-61
2022/10/28 08:48:46;;;;;;;10.70;5.30;;;;;;;;;;4991199;28;20212;-61
2022/10/28 08:51:16;;;;;;;14.50;6.20;;;;;;;;;;4980577;28;20692;-62
2022/10/28 08:53:52;;;;;;;18.58;5.60;;;;;;;;;;5004852;28;20566;-61
2022/10/28 08:56:19;;;;;;;14.60;5.78;;;;;;;;;;5003662;28;20295;-61
2022/10/28 08:58:45;;;;;;;17.88;5.60;;;;;;;;;;5003349;28;20223;-61
2022/10/28 09:01:13;;;;;;;17.58;4.88;;;;;;;;;;4986059;28;20217;-62
2022/10/28 09:03:39;;;;;;;14.30;4.95;;;;;;;;;;4987436;28;20579;-62
2022/10/28 09:06:05;;;;;;;12.40;5.30;;;;;;;;;;4989290;28;20205;-62
2022/10/28 09:08:31;;;;;;;18.83;5.50;;;;;;;;;;4989880;28;20693;-62
2022/10/28 09:11:05;;;;;;;15.25;4.82;;;;;;;;;;5002520;28;20208;-62
2022/10/28 09:13:35;;;;;;;15.18;4.72;;;;;;;;;;4997022;28;20208;-61
2022/10/28 09:16:17;;;;;;;11.35;4.15;;;;;;;;;;5003225;28;20243;-63
2022/10/28 09:18:50;;;;;;;14.75;4.65;;;;;;;;;;4988824;28;20217;-61
2022/10/28 09:21:24;;;;;;;16.05;5.53;;;;;;;;;;4989865;28;20224;-61
2022/10/28 09:23:54;;;;;;;15.38;4.72;;;;;;;;;;5001591;28;20856;-61
2022/10/28 09:26:23;;;;;;;16.67;5.10;;;;;;;;;;5010218;28;20335;-61
2022/10/28 09:29:05;;;;;;;12.43;4.60;;;;;;;;;;5022970;28;20216;-61
2022/10/28 09:31:34;;;;;;;13.90;5.60;;;;;;;;;;4986753;28;20209;-61
2022/10/28 09:34:06;;;;;;;17.38;4.63;;;;;;;;;;4987518;28;20302;-61
2022/10/28 09:36:33;;;;;;;14.07;4.60;;;;;;;;;;4986807;28;20197;-61
2022/10/28 09:38:59;;;;;;;15.52;4.40;;;;;;;;;;4991614;28;20307;-61
2022/10/28 09:41:26;;;;;;;13.98;4.50;;;;;;;;;;4994158;28;20771;-62
2022/10/28 09:43:53;;;;;;;11.82;4.18;;;;;;;;;;4987199;28;20621;-61
2022/10/28 09:46:19;;;;;;;13.52;4.20;;;;;;;;;;4986596;28;20213;-61
2022/10/28 09:48:45;;;;;;;11.27;4.00;;;;;;;;;;4987347;28;20216;-61
2022/10/28 09:51:15;;;;;;;17.00;4.82;;;;;;;;;;4985160;28;20217;-61
2022/10/28 09:53:45;;;;;;;9.85;3.88;;;;;;;;;;4990035;28;20201;-61
2022/10/28 09:56:10;;;;;;;13.80;4.35;;;;;;;;;;4989170;28;21322;-62
2022/10/28 09:58:36;;;;;;;11.93;4.30;;;;;;;;;;4989231;28;20233;-61
2022/10/28 10:01:01;;;;;;;13.40;4.65;;;;;;;;;;4985932;28;20280;-64
2022/10/28 10:03:26;;;;;;;13.30;4.90;;;;;;;;;;5003144;28;20213;-62
2022/10/28 10:05:53;;;;;;;11.05;3.63;;;;;;;;;;5000412;28;20298;-63
2022/10/28 10:08:18;;;;;;;14.90;4.57;;;;;;;;;;4988157;28;20907;-63
2022/10/28 10:10:48;;;;;;;12.57;4.28;;;;;;;;;;4987355;28;20213;-63
2022/10/28 10:13:13;;;;;;;13.57;4.10;;;;;;;;;;4987313;28;20213;-63
2022/10/28 10:15:41;;;;;;;16.52;5.07;;;;;;;;;;4988458;28;20209;-63
2022/10/28 10:18:06;;;;;;;13.57;4.40;;;;;;;;;;4988284;28;20217;-64
2022/10/28 10:20:44;;;;;;;11.70;4.38;;;;;;;;;;5003071;28;20873;-62
2022/10/28 10:23:20;;;;;;;10.45;4.55;;;;;;;;;;4987987;28;20209;-63
2022/10/28 10:25:45;;;;;;;17.15;4.38;;;;;;;;;;5003146;28;20351;-62
2022/10/28 10:28:14;;;;;;;13.20;4.20;;;;;;;;;;4987001;28;20736;-63
2022/10/28 10:30:44;;;;;;;17.17;4.45;;;;;;;;;;4987992;28;20209;-62
2022/10/28 10:33:16;;;;;;;14.63;4.22;;;;;;;;;;5002693;28;20296;-62
2022/10/28 10:35:41;;;;;;;21.25;4.97;;;;;;;;;;4987103;28;20209;-63
2022/10/28 10:38:06;;;;;;;17.45;5.03;;;;;;;;;;4987920;28;20236;-64
2022/10/28 10:40:33;;;;;;;12.60;4.60;;;;;;;;;;4987963;28;20220;-64
2022/10/28 10:43:12;;;;;;;14.88;5.07;;;;;;;;;;4988676;28;20344;-63
2022/10/28 10:45:38;;;;;;;13.35;4.15;;;;;;;;;;4987649;28;20201;-63
2022/10/28 10:48:12;;;;;;;16.58;4.65;;;;;;;;;;4985589;28;20212;-63
2022/10/28 10:50:37;;;;;;;19.77;5.00;;;;;;;;;;5002991;28;20205;-64
2022/10/28 10:53:03;;;;;;;13.77;5.00;;;;;;;;;;5002270;28;20345;-63
2022/10/28 10:55:32;;;;;;;15.30;4.60;;;;;;;;;;4986524;28;20245;-63
2022/10/28 10:57:57;;;;;;;13.13;4.93;;;;;;;;;;4987338;28;20217;-64
2022/10/28 11:00:24;;;;;;;12.77;5.05;;;;;;;;;;4987259;28;20577;-64
2022/10/28 11:02:49;;;;;;;20.15;4.68;;;;;;;;;;4987153;28;20619;-65
2022/10/28 11:05:18;;;;;;;16.23;4.57;;;;;;;;;;5002637;28;20209;-65
2022/10/28 11:07:44;;;;;;;11.30;4.53;;;;;;;;;;4987713;28;20299;-64
2022/10/28 11:10:19;;;;;;;16.77;4.20;;;;;;;;;;4986409;28;20308;-65
2022/10/28 11:12:52;;;;;;;15.15;4.47;;;;;;;;;;5002381;28;20552;-63
2022/10/28 11:15:21;;;;;;;16.40;5.10;;;;;;;;;;4987162;28;20201;-65
2022/10/28 11:17:53;;;;;;;14.10;3.95;;;;;;;;;;5002005;28;20209;-64
2022/10/28 11:20:24;;;;;;;12.45;4.25;;;;;;;;;;4987007;28;20577;-63
2022/10/28 11:22:49;;;;;;;14.15;3.90;;;;;;;;;;5001816;28;20213;-64
2022/10/28 11:25:25;;;;;;;14.45;4.75;;;;;;;;;;4987189;28;20239;-63
2022/10/28 11:27:54;;;;;;;13.10;4.35;;;;;;;;;;4987161;28;20267;-63
2022/10/28 11:30:20;;;;;;;15.15;4.20;;;;;;;;;;4986293;28;20272;-63
2022/10/28 11:32:49;;;;;;;12.50;4.10;;;;;;;;;;5002213;28;20215;-64
2022/10/28 11:35:14;;;;;;;14.40;4.28;;;;;;;;;;4986641;28;20308;-63
2022/10/28 11:37:44;;;;;;;13.73;4.60;;;;;;;;;;4986499;28;20281;-63
2022/10/28 11:40:17;;;;;;;14.70;4.55;;;;;;;;;;4986713;28;20241;-63
2022/10/28 11:42:42;;;;;;;12.52;5.03;;;;;;;;;;4986028;28;20209;-62
2022/10/28 11:45:10;;;;;;;13.38;4.28;;;;;;;;;;4986076;28;20806;-64
2022/10/28 11:47:40;;;;;;;13.63;4.28;;;;;;;;;;4985963;28;20209;-64
2022/10/28 11:50:08;;;;;;;17.23;4.53;;;;;;;;;;4986650;28;20209;-64
2022/10/28 11:52:43;;;;;;;16.05;4.45;;;;;;;;;;4986837;28;20232;-64
2022/10/28 11:55:21;;;;;;;14.73;4.55;;;;;;;;;;5002561;28;20209;-64
2022/10/28 11:57:55;;;;;;;16.33;4.28;;;;;;;;;;5002786;28;20232;-64
2022/10/28 12:00:21;;;;;;;9.48;3.97;;;;;;;;;;5001636;28;20217;-63
2022/10/28 12:02:50;;;;;;;13.20;4.38;;;;;;;;;;4986971;28;20224;-63
2022/10/28 12:05:22;;;;;;;15.32;4.10;;;;;;;;;;4985431;28;20221;-64
2022/10/28 12:07:53;;;;;;;15.60;4.38;;;;;;;;;;5003615;28;20217;-63
2022/10/28 12:10:24;;;;;;;16.85;4.05;;;;;;;;;;5005653;28;20212;-63
2022/10/28 12:12:50;;;;;;;14.95;4.38;;;;;;;;;;4990573;28;20295;-63
2022/10/28 12:15:18;;;;;;;12.63;3.72;;;;;;;;;;4992611;28;21004;-63
2022/10/28 12:17:59;;;;;;;17.17;5.35;;;;;;;;;;5013238;28;20213;-63
2022/10/28 12:20:29;;;;;;;12.35;4.00;;;;;;;;;;4984951;28;20466;-63
2022/10/28 12:22:55;;;;;;;9.80;3.65;;;;;;;;;;4999018;28;20254;-63
2022/10/28 12:25:24;;;;;;;17.48;4.30;;;;;;;;;;4986281;28;20209;-64
2022/10/28 12:27:50;;;;;;;12.13;3.90;;;;;;;;;;4985660;28;20206;-63
2022/10/28 12:30:20;;;;;;;15.60;3.90;;;;;;;;;;4994446;28;20568;-64
2022/10/28 12:32:45;;;;;;;11.73;4.03;;;;;;;;;;5000380;28;20896;-63
2022/10/28 12:35:28;;;;;;;14.13;3.85;;;;;;;;;;4993047;28;20214;-64
2022/10/28 12:38:05;;;;;;;15.82;4.90;;;;;;;;;;4985959;28;20193;-63
2022/10/28 12:40:34;;;;;;;15.27;4.20;;;;;;;;;;4996613;28;20220;-62
2022/10/28 12:43:08;;;;;;;17.77;5.05;;;;;;;;;;4987028;28;20209;-63
2022/10/28 12:45:34;;;;;;;12.68;4.65;;;;;;;;;;5003888;28;20576;-63
2022/10/28 12:48:14;;;;;;;14.20;4.65;;;;;;;;;;4989271;28;20212;-64
2022/10/28 12:50:42;;;;;;;15.93;4.68;;;;;;;;;;5009941;28;20213;-64
2022/10/28 12:53:22;;;;;;;16.20;4.35;;;;;;;;;;4990133;28;20217;-63
2022/10/28 12:55:49;;;;;;;13.05;3.67;;;;;;;;;;4969697;28;20236;-63
2022/10/28 12:58:15;;;;;;;14.57;4.05;;;;;;;;;;4982790;28;20215;-62
2022/10/28 13:00:48;;;;;;;14.13;4.70;;;;;;;;;;4990727;28;20205;-63
2022/10/28 13:03:13;;;;;;;17.35;4.32;;;;;;;;;;5003482;28;20500;-64
2022/10/28 13:05:46;;;;;;;14.25;4.13;;;;;;;;;;5004315;28;20857;-63
2022/10/28 13:08:15;;;;;;;12.45;3.60;;;;;;;;;;4987749;28;20896;-63
2022/10/28 13:10:41;;;;;;;11.98;3.70;;;;;;;;;;5004102;28;20279;-63
2022/10/28 13:13:10;;;;;;;18.58;5.00;;;;;;;;;;5002148;28;20627;-64
2022/10/28 13:15:38;;;;;;;14.95;4.18;;;;;;;;;;5003471;28;20577;-64
2022/10/28 13:18:21;;;;;;;14.40;4.35;;;;;;;;;;5003383;28;20260;-63
2022/10/28 13:21:01;;;;;;;16.60;3.85;;;;;;;;;;4988173;28;20213;-63
2022/10/28 13:23:34;;;;;;;13.57;3.67;;;;;;;;;;4979965;28;20268;-63
2022/10/28 13:26:06;;;;;;;15.27;3.95;;;;;;;;;;4998212;28;20218;-63
2022/10/28 13:28:33;;;;;;;15.20;3.88;;;;;;;;;;4996677;28;20220;-63
2022/10/28 13:30:59;;;;;;;16.77;4.05;;;;;;;;;;5003433;28;20235;-64
2022/10/28 13:33:25;;;;;;;16.38;3.75;;;;;;;;;;5004689;28;20573;-63
2022/10/28 13:35:50;;;;;;;14.43;3.80;;;;;;;;;;5005141;28;20213;-64
2022/10/28 13:38:17;;;;;;;11.88;3.90;;;;;;;;;;4988689;28;20217;-63
2022/10/28 13:40:44;;;;;;;16.50;4.70;;;;;;;;;;5004323;28;20217;-63
2022/10/28 13:43:19;;;;;;;19.27;4.30;;;;;;;;;;4988572;28;20213;-64
2022/10/28 13:45:48;;;;;;;15.32;3.88;;;;;;;;;;4988758;28;20219;-63
2022/10/28 13:48:29;;;;;;;15.25;3.78;;;;;;;;;;5003637;28;20236;-63
2022/10/28 13:51:07;;;;;;;15.05;4.40;;;;;;;;;;4988207;28;20258;-63
2022/10/28 13:53:36;;;;;;;14.93;4.30;;;;;;;;;;4988748;28;20213;-64
2022/10/28 13:56:01;;;;;;;15.25;3.92;;;;;;;;;;4988069;28;20705;-63
2022/10/28 13:58:26;;;;;;;14.45;4.10;;;;;;;;;;4986183;28;20233;-62
2022/10/28 14:00:52;;;;;;;15.77;3.72;;;;;;;;;;4988458;28;20209;-62
2022/10/28 14:03:18;;;;;;;20.48;4.22;;;;;;;;;;4987929;28;20213;-62
2022/10/28 14:05:44;;;;;;;17.55;4.15;;;;;;;;;;4970141;28;20230;-62
2022/10/28 14:08:17;;;;;;;12.60;3.53;;;;;;;;;;4987795;28;20760;-63
2022/10/28 14:10:53;;;;;;;18.20;4.10;;;;;;;;;;4987094;28;20217;-62
2022/10/28 14:13:19;;;;;;;17.70;4.32;;;;;;;;;;5002507;28;20224;-65
2022/10/28 14:15:44;;;;;;;17.05;4.20;;;;;;;;;;5002783;28;20420;-62
2022/10/28 14:18:16;;;;;;;15.10;4.00;;;;;;;;;;4987554;28;20457;-63
2022/10/28 14:20:53;;;;;;;16.65;4.30;;;;;;;;;;4987051;28;20220;-61
2022/10/28 14:23:19;;;;;;;16.77;4.18;;;;;;;;;;5002435;28;20225;-63
2022/10/28 14:25:48;;;;;;;13.93;3.97;;;;;;;;;;4987807;28;20224;-63
2022/10/28 14:28:25;;;;;;;13.93;3.92;;;;;;;;;;4987368;28;20311;-63
2022/10/28 14:31:09;;;;;;;15.15;4.00;;;;;;;;;;4988301;28;20209;-62
2022/10/28 14:33:34;;;;;;;15.15;3.70;;;;;;;;;;4972491;28;20894;-62